首页
METAR-TAF:

METAR-TAF

机场 :

Roanoke Regional Airport (Woodrum Field)

羅阿諾克, 弗吉尼亚州, 美国

纬度: 37-19-01N, 经度: 079-58-27W, 海拔: 358米

当前天气观测

该预报发布于56分钟前的11:54 UTC
静风
温度 -1°C
湿度 93%
气压 1027 hPa
能見度: 16.1公里
少量云层高于6000英尺
散云层高于25000英尺

METAR: KROA 181154Z 00000KT 10SM FEW060 SCT250 M01/M02 A3033 RMK AO2 SLP278 T10061017 10033 21006 51014

时间: 07:50 (12:50 UTC)

预报

该预报发布于1小时和30分钟前的11:20 UTC
预报有效从18日的 12点(UTC)到 19日的 12点(UTC)
风速节,风向
能見度: 10公里
多云层高于25000英尺
从 19日的 1100点(UTC)
风速3节,风向多变
能見度: 10公里
多云层高于6000英尺

TAF: KROA 181120Z 1812/1912 00000KT P6SM BKN250 FM191100 VRB03KT P6SM BKN060

超过4000个机场的气象观测和天气预报(METAR&TAF报告)。

可查询的气象台以黄色和红色小点在地图上表示。

将鼠标移到小点上方,可查看气象台名称。

然后点击查看天气观测和预报。

如需切换地图:点击带黑十字的绿色按钮放大地图;点击带横线的绿色按钮缩小地图;或者点击绿色箭头查看邻近地区的地图。


METAR-TAF: